Time;durP1;ratioP1;P1;durP2;ratioP2;P2;SDS_P1;SDS_P2;PMS_P1;PMS_P2;Temp;Humidity;BMP_temperature;BMP_pressure;BME280_temperature;BME280_humidity;BME280_pressure;Samples;Min_cycle;Max_cycle;Signal;HPM_P1;HPM_P2
2023/03/13 04:16:55;;;;;;;;;48.00;41.25;;;;;;;;6491416;46;9750;-64
2023/03/13 04:22:58;;;;;;;;;59.00;48.67;;;;;;;;6489740;46;8912;-64
2023/03/13 04:29:01;;;;;;;;;69.00;56.67;;;;;;;;6491180;31;8867;-64
2023/03/13 04:35:21;;;;;;;;;61.00;51.33;;;;;;;;6490375;39;8906;-63
2023/03/13 04:41:54;;;;;;;;;66.00;54.67;;;;;;;;6492250;31;8875;-64
2023/03/13 04:48:17;;;;;;;;;68.25;54.25;;;;;;;;6489088;46;8918;-63
2023/03/13 04:54:32;;;;;;;;;71.67;59.33;;;;;;;;6491247;39;8849;-63
2023/03/13 05:00:55;;;;;;;;;76.00;62.50;;;;;;;;6490680;39;8917;-64
2023/03/13 05:07:08;;;;;;;;;75.67;61.00;;;;;;;;6490801;39;9057;-64
2023/03/13 05:13:27;;;;;;;;;78.33;60.67;;;;;;;;6490052;46;9061;-64
2023/03/13 05:19:45;;;;;;;;;78.33;60.33;;;;;;;;6490149;46;8827;-63
2023/03/13 05:26:17;;;;;;;;;82.00;64.33;;;;;;;;6490619;31;8946;-66
2023/03/13 05:32:22;;;;;;;;;79.67;62.67;;;;;;;;6486413;46;9017;-63
2023/03/13 05:38:51;;;;;;;;;80.67;66.33;;;;;;;;6490687;39;8900;-66
2023/03/13 05:45:28;;;;;;;;;83.00;66.33;;;;;;;;6489931;31;8916;-64
2023/03/13 05:51:52;;;;;;;;;84.33;65.33;;;;;;;;6490568;39;9029;-64
2023/03/13 05:58:12;;;;;;;;;78.50;63.00;;;;;;;;6490299;39;8885;-66
2023/03/13 06:04:17;;;;;;;;;79.33;63.33;;;;;;;;6489948;47;8919;-64
2023/03/13 06:10:22;;;;;;;;;80.33;63.33;;;;;;;;6489822;31;9086;-66
2023/03/13 06:16:28;;;;;;;;;70.25;58.00;;;;;;;;6489250;47;8919;-65
2023/03/13 06:22:45;;;;;;;;;71.75;59.00;;;;;;;;6490177;39;8863;-63
2023/03/13 06:28:50;;;;;;;;;79.25;62.75;;;;;;;;6489420;39;9083;-65
2023/03/13 06:34:56;;;;;;;;;75.00;60.50;;;;;;;;6490455;39;8835;-64
2023/03/13 06:41:00;;;;;;;;;70.00;55.50;;;;;;;;6489363;39;8919;-65
2023/03/13 06:47:02;;;;;;;;;62.75;50.25;;;;;;;;6490809;39;8918;-65
2023/03/13 06:53:07;;;;;;;;;67.75;54.00;;;;;;;;6491784;39;8869;-66
2023/03/13 06:59:12;;;;;;;;;62.00;50.25;;;;;;;;6491385;39;8862;-64
2023/03/13 07:05:22;;;;;;;;;66.00;55.00;;;;;;;;6490694;46;8963;-66
2023/03/13 07:11:26;;;;;;;;;61.50;50.00;;;;;;;;6490950;39;8953;-65
2023/03/13 07:17:29;;;;;;;;;68.50;57.00;;;;;;;;6489760;39;8943;-64
2023/03/13 07:23:33;;;;;;;;;62.50;50.25;;;;;;;;6489535;31;8925;-66
2023/03/13 07:29:39;;;;;;;;;65.00;52.33;;;;;;;;6490537;39;8916;-64
2023/03/13 07:35:52;;;;;;;;;62.00;47.75;;;;;;;;6489865;39;8984;-64
2023/03/13 07:42:00;;;;;;;;;58.75;47.25;;;;;;;;6488233;39;9018;-64
2023/03/13 07:48:08;;;;;;;;;63.25;49.00;;;;;;;;6483482;39;8930;-63
2023/03/13 07:54:11;;;;;;;;;71.00;58.25;;;;;;;;6485007;39;8943;-62
2023/03/13 08:00:17;;;;;;;;;66.75;53.00;;;;;;;;6484540;31;8912;-64
2023/03/13 08:06:25;;;;;;;;;52.00;46.25;;;;;;;;6485376;39;9001;-63
2023/03/13 08:12:35;;;;;;;;;96.00;78.25;;;;;;;;6482042;39;8943;-63
2023/03/13 08:18:43;;;;;;;;;51.25;43.25;;;;;;;;6504055;36;9679;-65
2023/03/13 08:24:47;;;;;;;;;42.75;40.50;;;;;;;;6485422;46;8926;-63
2023/03/13 08:30:55;;;;;;;;;55.25;47.00;;;;;;;;6486045;46;8943;-66
2023/03/13 08:36:58;;;;;;;;;57.75;47.00;;;;;;;;6484027;46;9027;-64
2023/03/13 08:43:04;;;;;;;;;71.00;57.75;;;;;;;;6485592;39;9029;-64
2023/03/13 08:49:09;;;;;;;;;42.75;41.00;;;;;;;;6486832;31;8983;-64
2023/03/13 08:55:12;;;;;;;;;35.50;34.25;;;;;;;;6484454;39;9002;-63
2023/03/13 09:01:16;;;;;;;;;38.50;35.00;;;;;;;;6485041;46;8967;-63
2023/03/13 09:07:18;;;;;;;;;46.00;39.25;;;;;;;;6485429;39;9645;-65
2023/03/13 09:13:25;;;;;;;;;45.25;41.00;;;;;;;;6483026;39;9103;-64
2023/03/13 09:19:29;;;;;;;;;42.50;38.25;;;;;;;;6484306;39;9630;-65
2023/03/13 09:25:36;;;;;;;;;36.50;34.25;;;;;;;;6484953;46;8913;-64
2023/03/13 09:31:40;;;;;;;;;58.50;48.50;;;;;;;;6485280;39;8974;-64
2023/03/13 09:37:44;;;;;;;;;78.25;64.00;;;;;;;;6484954;39;8939;-63
2023/03/13 09:43:59;;;;;;;;;34.00;31.00;;;;;;;;6484186;31;8982;-63
2023/03/13 09:50:12;;;;;;;;;57.50;44.75;;;;;;;;6484605;39;8931;-65
2023/03/13 09:56:22;;;;;;;;;45.00;39.50;;;;;;;;6484054;39;9019;-65
2023/03/13 10:02:31;;;;;;;;;27.50;24.50;;;;;;;;6484996;31;8932;-65
2023/03/13 10:08:36;;;;;;;;;29.50;27.25;;;;;;;;6484079;46;8947;-66
2023/03/13 10:14:48;;;;;;;;;24.50;23.50;;;;;;;;6483295;39;9615;-63
2023/03/13 10:21:11;;;;;;;;;45.25;40.50;;;;;;;;6486679;31;8970;-65
2023/03/13 10:27:16;;;;;;;;;17.00;16.00;;;;;;;;8204992;31;9050;-64
2023/03/13 10:33:29;;;;;;;;;48.75;42.50;;;;;;;;6487331;39;9042;-64
2023/03/13 10:39:32;;;;;;;;;81.75;63.50;;;;;;;;6486245;31;9581;-66
2023/03/13 10:45:37;;;;;;;;;84.75;65.00;;;;;;;;6486529;39;9862;-65
2023/03/13 10:51:43;;;;;;;;;35.00;33.50;;;;;;;;6483893;46;8981;-65
2023/03/13 10:58:00;;;;;;;;;20.33;17.00;;;;;;;;6484404;46;8928;-64
2023/03/13 11:04:19;;;;;;;;;17.33;16.33;;;;;;;;6485116;31;8979;-63
2023/03/13 11:10:23;;;;;;;;;55.25;44.25;;;;;;;;6486423;39;9976;-65
2023/03/13 11:16:28;;;;;;;;;22.75;21.50;;;;;;;;6485438;39;9007;-64
2023/03/13 11:23:20;;;;;;;;;19.00;18.00;;;;;;;;6484688;46;8931;-65
2023/03/13 11:29:34;;;;;;;;;28.50;23.00;;;;;;;;6483481;46;8922;-65
2023/03/13 11:35:49;;;;;;;;;20.00;16.25;;;;;;;;6484653;39;8971;-64
2023/03/13 11:42:25;;;;;;;;;53.75;46.50;;;;;;;;6485196;39;9031;-65
2023/03/13 11:48:53;;;;;;;;;22.50;21.50;;;;;;;;6482574;46;8945;-65
2023/03/13 11:55:05;;;;;;;;;18.33;15.67;;;;;;;;6484925;31;9003;-63
2023/03/13 12:01:25;;;;;;;;;25.33;20.00;;;;;;;;6484565;46;8923;-64
2023/03/13 12:07:38;;;;;;;;;16.33;15.67;;;;;;;;6485456;31;9047;-65
2023/03/13 12:14:14;;;;;;;;;27.00;25.75;;;;;;;;6486832;39;8953;-65
2023/03/13 12:20:32;;;;;;;;;30.33;24.67;;;;;;;;6485918;31;8974;-64
2023/03/13 12:27:01;;;;;;;;;72.50;58.25;;;;;;;;6485422;39;8914;-63
2023/03/13 12:33:31;;;;;;;;;28.75;28.25;;;;;;;;6485385;39;9494;-65
2023/03/13 12:40:09;;;;;;;;;15.00;14.33;;;;;;;;6485054;39;8931;-64
2023/03/13 12:46:25;;;;;;;;;32.33;27.67;;;;;;;;6485404;31;9018;-64
2023/03/13 12:53:00;;;;;;;;;20.00;17.67;;;;;;;;6484356;39;8955;-65
2023/03/13 12:59:30;;;;;;;;;21.00;21.00;;;;;;;;6483562;31;9594;-64
2023/03/13 13:05:37;;;;;;;;;22.33;20.33;;;;;;;;6484414;39;8961;-63
2023/03/13 13:11:46;;;;;;;;;16.67;15.00;;;;;;;;6484580;39;9016;-63
2023/03/13 13:18:05;;;;;;;;;35.25;29.00;;;;;;;;6484126;31;9090;-64
2023/03/13 13:24:41;;;;;;;;;18.00;18.00;;;;;;;;6481443;31;8918;-63
2023/03/13 13:30:45;;;;;;;;;21.33;19.67;;;;;;;;6483423;39;8959;-64
2023/03/13 13:36:59;;;;;;;;;95.00;82.25;;;;;;;;6483008;31;9666;-64
2023/03/13 13:43:07;;;;;;;;;33.00;30.25;;;;;;;;6484630;46;8968;-64
2023/03/13 13:49:13;;;;;;;;;87.25;73.00;;;;;;;;6483123;39;8965;-63
2023/03/13 13:55:25;;;;;;;;;75.25;60.25;;;;;;;;6484045;46;8946;-63
2023/03/13 14:01:32;;;;;;;;;69.50;55.25;;;;;;;;6484615;47;9049;-62
2023/03/13 14:07:39;;;;;;;;;19.50;18.50;;;;;;;;6482624;31;8979;-64
2023/03/13 14:13:43;;;;;;;;;61.50;50.50;;;;;;;;6483734;31;9173;-64
2023/03/13 14:19:48;;;;;;;;;16.33;16.33;;;;;;;;6482434;46;8943;-65
2023/03/13 14:25:52;;;;;;;;;21.67;19.00;;;;;;;;6482735;39;8935;-65
2023/03/13 14:31:58;;;;;;;;;69.75;56.50;;;;;;;;6483934;47;8965;-63
2023/03/13 14:38:03;;;;;;;;;16.67;15.00;;;;;;;;6483328;39;8923;-63
2023/03/13 14:44:33;;;;;;;;;31.50;27.25;;;;;;;;6487962;39;9012;-65
2023/03/13 14:50:39;;;;;;;;;37.00;31.00;;;;;;;;6487912;39;8950;-63
2023/03/13 14:56:44;;;;;;;;;38.00;34.25;;;;;;;;6488091;39;8888;-64
2023/03/13 15:02:48;;;;;;;;;47.50;39.50;;;;;;;;6488579;31;8898;-65
2023/03/13 15:09:17;;;;;;;;;31.50;27.00;;;;;;;;6489262;39;9039;-63
2023/03/13 15:15:26;;;;;;;;;11.00;11.00;;;;;;;;6489482;46;9068;-63
2023/03/13 15:21:34;;;;;;;;;36.25;31.75;;;;;;;;6488174;39;8943;-64
2023/03/13 15:27:37;;;;;;;;;38.50;24.25;;;;;;;;6487655;39;9602;-63
2023/03/13 15:33:43;;;;;;;;;21.25;19.75;;;;;;;;6487389;31;8928;-65
2023/03/13 15:39:47;;;;;;;;;19.00;18.50;;;;;;;;6487741;46;8992;-64
2023/03/13 15:45:51;;;;;;;;;28.50;24.75;;;;;;;;6487994;39;8921;-64
2023/03/13 15:51:56;;;;;;;;;38.00;31.50;;;;;;;;6489009;31;9626;-65
2023/03/13 15:58:01;;;;;;;;;21.75;18.00;;;;;;;;6488228;46;8881;-63
2023/03/13 16:04:05;;;;;;;;;19.00;18.50;;;;;;;;6487735;39;9024;-64
2023/03/13 16:10:19;;;;;;;;;25.00;21.50;;;;;;;;6487713;39;9147;-64
2023/03/13 16:16:29;;;;;;;;;16.50;15.75;;;;;;;;6489020;39;8940;-63
2023/03/13 16:22:37;;;;;;;;;24.00;22.00;;;;;;;;6488644;39;8921;-64
2023/03/13 16:28:40;;;;;;;;;24.75;23.00;;;;;;;;6487908;31;8943;-61
2023/03/13 16:34:42;;;;;;;;;22.75;20.00;;;;;;;;6487486;46;9008;-62
2023/03/13 16:40:46;;;;;;;;;35.75;33.75;;;;;;;;6488869;31;8884;-61
2023/03/13 16:46:48;;;;;;;;;40.00;36.50;;;;;;;;6487401;39;8972;-66
2023/03/13 16:53:06;;;;;;;;;25.75;25.00;;;;;;;;6485651;39;9097;-63
2023/03/13 16:59:11;;;;;;;;;21.25;21.25;;;;;;;;6486501;36;8968;-63
2023/03/13 17:05:14;;;;;;;;;30.75;28.00;;;;;;;;6488430;39;9063;-63
2023/03/13 17:11:20;;;;;;;;;27.00;25.25;;;;;;;;6487536;39;9180;-64
2023/03/13 17:17:23;;;;;;;;;23.75;21.00;;;;;;;;6487056;39;8925;-63
2023/03/13 17:23:29;;;;;;;;;28.00;27.25;;;;;;;;6487750;39;9059;-62
2023/03/13 17:29:32;;;;;;;;;34.00;28.50;;;;;;;;6486313;46;9072;-65
2023/03/13 17:35:35;;;;;;;;;31.00;29.25;;;;;;;;6486259;46;8920;-65
2023/03/13 17:41:39;;;;;;;;;31.00;28.50;;;;;;;;6486521;39;9076;-63
2023/03/13 17:47:45;;;;;;;;;28.25;28.25;;;;;;;;6487988;31;8997;-63
2023/03/13 17:53:50;;;;;;;;;28.00;26.25;;;;;;;;6487406;31;8886;-63
2023/03/13 17:59:55;;;;;;;;;35.00;30.00;;;;;;;;8205998;36;9565;-63
2023/03/13 18:05:59;;;;;;;;;31.75;29.00;;;;;;;;6486764;47;9000;-62
2023/03/13 18:12:04;;;;;;;;;35.50;33.25;;;;;;;;6487437;47;8920;-65
2023/03/13 18:18:14;;;;;;;;;31.00;30.25;;;;;;;;6487351;39;8886;-63
2023/03/13 18:24:19;;;;;;;;;42.00;39.67;;;;;;;;6487028;46;8916;-63
2023/03/13 18:30:27;;;;;;;;;33.50;32.25;;;;;;;;6487452;39;9521;-63
2023/03/13 18:36:39;;;;;;;;;38.00;34.00;;;;;;;;6487485;39;8857;-63
2023/03/13 18:42:42;;;;;;;;;40.50;36.75;;;;;;;;6489111;39;8854;-64
2023/03/13 18:48:50;;;;;;;;;37.75;37.00;;;;;;;;6488546;46;9038;-63
2023/03/13 18:54:53;;;;;;;;;32.75;30.50;;;;;;;;6489279;46;8978;-64
2023/03/13 19:00:55;;;;;;;;;31.50;31.00;;;;;;;;6488969;39;9732;-64
2023/03/13 19:06:59;;;;;;;;;35.00;31.25;;;;;;;;6488881;46;8971;-63
2023/03/13 19:13:07;;;;;;;;;30.50;27.00;;;;;;;;6487766;46;9145;-64
2023/03/13 19:19:22;;;;;;;;;31.50;30.00;;;;;;;;6489066;46;8891;-63
2023/03/13 19:25:33;;;;;;;;;31.50;29.75;;;;;;;;6489089;31;9133;-63
2023/03/13 19:31:37;;;;;;;;;32.25;29.50;;;;;;;;6488566;39;8892;-64
2023/03/13 19:37:42;;;;;;;;;37.00;34.50;;;;;;;;6488642;39;8893;-63
2023/03/13 19:43:50;;;;;;;;;37.25;33.50;;;;;;;;6489022;39;8907;-63
2023/03/13 19:49:54;;;;;;;;;35.50;30.50;;;;;;;;6488417;39;8898;-65
2023/03/13 19:55:59;;;;;;;;;34.00;28.50;;;;;;;;6488331;46;8876;-64
2023/03/13 20:02:05;;;;;;;;;35.50;34.75;;;;;;;;6488079;46;9045;-67
2023/03/13 20:08:11;;;;;;;;;39.25;35.00;;;;;;;;6489178;31;8876;-64
2023/03/13 20:14:17;;;;;;;;;27.75;26.00;;;;;;;;6488097;46;8985;-64
2023/03/13 20:20:23;;;;;;;;;31.00;29.25;;;;;;;;6488240;46;8872;-64
2023/03/13 20:26:27;;;;;;;;;28.00;28.00;;;;;;;;6488091;46;8974;-62
2023/03/13 20:32:32;;;;;;;;;37.25;31.00;;;;;;;;6488942;31;9006;-63
2023/03/13 20:38:39;;;;;;;;;44.75;40.75;;;;;;;;6489141;39;8847;-64
2023/03/13 20:44:44;;;;;;;;;35.75;30.50;;;;;;;;6487962;39;8859;-64
2023/03/13 20:50:56;;;;;;;;;32.25;28.75;;;;;;;;6488220;39;8867;-63
2023/03/13 20:57:04;;;;;;;;;46.50;39.75;;;;;;;;6488111;31;9059;-64
2023/03/13 21:03:06;;;;;;;;;38.00;37.75;;;;;;;;6487525;39;9017;-62
2023/03/13 21:09:11;;;;;;;;;35.50;33.25;;;;;;;;6488919;31;8954;-63
2023/03/13 21:15:15;;;;;;;;;50.50;43.50;;;;;;;;6488049;31;9605;-61
2023/03/13 21:21:21;;;;;;;;;53.75;47.00;;;;;;;;6486894;46;8926;-64
2023/03/13 21:27:24;;;;;;;;;29.00;22.25;;;;;;;;6488315;46;8866;-64
2023/03/13 21:33:27;;;;;;;;;63.75;47.75;;;;;;;;6487453;39;9063;-64
2023/03/13 21:39:30;;;;;;;;;54.75;47.00;;;;;;;;6487697;46;8863;-64
2023/03/13 21:45:36;;;;;;;;;57.00;45.25;;;;;;;;6486662;39;9007;-63
2023/03/13 21:51:39;;;;;;;;;52.25;41.00;;;;;;;;6488012;31;8985;-63
2023/03/13 21:57:42;;;;;;;;;35.50;33.00;;;;;;;;6487572;31;8916;-63
2023/03/13 22:03:46;;;;;;;;;46.00;41.50;;;;;;;;6487948;39;9569;-63
2023/03/13 22:09:50;;;;;;;;;45.75;38.25;;;;;;;;6488402;39;9582;-63
2023/03/13 22:15:55;;;;;;;;;39.00;36.25;;;;;;;;6487092;31;9583;-64
2023/03/13 22:22:00;;;;;;;;;41.75;30.75;;;;;;;;6487561;31;8910;-63
2023/03/13 22:28:03;;;;;;;;;26.50;26.50;;;;;;;;6488202;39;8864;-64
2023/03/13 22:34:05;;;;;;;;;26.25;26.00;;;;;;;;6487048;39;8937;-63
2023/03/13 22:40:09;;;;;;;;;22.00;22.00;;;;;;;;6486976;31;8892;-62
2023/03/13 22:46:12;;;;;;;;;25.50;23.00;;;;;;;;6485996;39;8922;-63
2023/03/13 22:52:17;;;;;;;;;24.00;20.50;;;;;;;;6487654;39;8920;-65
2023/03/13 22:58:20;;;;;;;;;15.20;15.20;;;;;;;;6306954;39;10000558;-64
2023/03/13 23:04:25;;;;;;;;;18.50;15.75;;;;;;;;6486264;31;8919;-63
2023/03/13 23:10:29;;;;;;;;;24.00;19.50;;;;;;;;6487128;39;8988;-63
2023/03/13 23:16:32;;;;;;;;;20.25;15.50;;;;;;;;6488324;31;8928;-64
2023/03/13 23:22:36;;;;;;;;;24.50;21.75;;;;;;;;6487163;39;9511;-63
2023/03/13 23:28:40;;;;;;;;;23.25;23.25;;;;;;;;6488565;46;8880;-63
2023/03/13 23:34:44;;;;;;;;;34.25;34.25;;;;;;;;6489087;39;8865;-63
2023/03/13 23:40:48;;;;;;;;;61.50;50.25;;;;;;;;6488890;31;8892;-63
2023/03/13 23:46:56;;;;;;;;;65.50;51.00;;;;;;;;6488545;39;8901;-64
2023/03/13 23:53:01;;;;;;;;;65.00;51.75;;;;;;;;6488463;31;8908;-63
2023/03/13 23:59:04;;;;;;;;;47.75;44.25;;;;;;;;6489240;39;9497;-63
